sensor_id;sensor_type;location;lat;lon;timestamp;pressure;altitude;pressure_sealevel;temperature;humidity
50342;BME280;76053;42.682;23.286;2024-01-27T00:02:51;95237.00;;;24.96;49.40
50342;BME280;76053;42.682;23.286;2024-01-27T00:05:51;95231.97;;;24.95;49.50
50342;BME280;76053;42.682;23.286;2024-01-27T00:08:52;95238.22;;;24.95;49.61
50342;BME280;76053;42.682;23.286;2024-01-27T00:11:53;95234.31;;;24.93;49.65
50342;BME280;76053;42.682;23.286;2024-01-27T00:14:53;95237.06;;;24.93;49.65
50342;BME280;76053;42.682;23.286;2024-01-27T00:17:54;95219.88;;;24.92;49.68
50342;BME280;76053;42.682;23.286;2024-01-27T00:20:54;95220.28;;;24.91;49.77
50342;BME280;76053;42.682;23.286;2024-01-27T00:23:55;95213.25;;;24.90;49.67
50342;BME280;76053;42.682;23.286;2024-01-27T00:27:00;95224.97;;;24.86;49.76
50342;BME280;76053;42.682;23.286;2024-01-27T00:30:01;95228.53;;;24.83;49.85
50342;BME280;76053;42.682;23.286;2024-01-27T00:33:01;95219.16;;;24.81;49.83
50342;BME280;76053;42.682;23.286;2024-01-27T00:36:02;95220.38;;;24.80;49.71
50342;BME280;76053;42.682;23.286;2024-01-27T00:39:04;95211.41;;;24.79;49.80
50342;BME280;76053;42.682;23.286;2024-01-27T00:42:04;95227.03;;;24.79;49.78
50342;BME280;76053;42.682;23.286;2024-01-27T00:45:05;95220.00;;;24.78;49.99
50342;BME280;76053;42.682;23.286;2024-01-27T00:48:06;95225.47;;;24.78;49.75
50342;BME280;76053;42.682;23.286;2024-01-27T00:51:07;95215.72;;;24.77;49.95
50342;BME280;76053;42.682;23.286;2024-01-27T00:54:07;95211.84;;;24.74;49.76
50342;BME280;76053;42.682;23.286;2024-01-27T00:57:08;95221.22;;;24.73;49.99
50342;BME280;76053;42.682;23.286;2024-01-27T01:15:59;95213.91;;;24.63;50.20
50342;BME280;76053;42.682;23.286;2024-01-27T01:18:59;95207.72;;;24.59;50.23
50342;BME280;76053;42.682;23.286;2024-01-27T01:22:00;95214.34;;;24.58;50.20
50342;BME280;76053;42.682;23.286;2024-01-27T01:25:00;95219.47;;;24.53;50.09
50342;BME280;76053;42.682;23.286;2024-01-27T01:28:01;95216.81;;;24.46;50.36
50342;BME280;76053;42.682;23.286;2024-01-27T01:31:01;95220.75;;;24.44;50.61
50342;BME280;76053;42.682;23.286;2024-01-27T01:34:02;95205.56;;;24.40;50.88
50342;BME280;76053;42.682;23.286;2024-01-27T01:37:02;95195.41;;;24.37;50.94
50342;BME280;76053;42.682;23.286;2024-01-27T01:40:03;95191.56;;;24.34;51.09
50342;BME280;76053;42.682;23.286;2024-01-27T01:43:09;95196.28;;;24.30;51.02
50342;BME280;76053;42.682;23.286;2024-01-27T01:46:10;95184.97;;;24.28;51.13
50342;BME280;76053;42.682;23.286;2024-01-27T01:49:11;95178.72;;;24.28;51.33
50342;BME280;76053;42.682;23.286;2024-01-27T01:52:11;95186.56;;;24.26;51.40
50342;BME280;76053;42.682;23.286;2024-01-27T01:55:12;95188.09;;;24.27;51.41
50342;BME280;76053;42.682;23.286;2024-01-27T01:58:13;95187.31;;;24.26;51.47
50342;BME280;76053;42.682;23.286;2024-01-27T02:01:13;95178.78;;;24.24;51.42
50342;BME280;76053;42.682;23.286;2024-01-27T02:04:15;95173.34;;;24.21;51.29
50342;BME280;76053;42.682;23.286;2024-01-27T02:07:16;95187.00;;;24.21;51.40
50342;BME280;76053;42.682;23.286;2024-01-27T02:10:17;95165.94;;;24.18;51.48
50342;BME280;76053;42.682;23.286;2024-01-27T02:13:22;95159.31;;;24.15;51.44
50342;BME280;76053;42.682;23.286;2024-01-27T02:16:22;95147.63;;;24.15;51.46
50342;BME280;76053;42.682;23.286;2024-01-27T02:19:23;95150.34;;;24.11;51.53
50342;BME280;76053;42.682;23.286;2024-01-27T02:22:24;95149.22;;;24.09;51.52
50342;BME280;76053;42.682;23.286;2024-01-27T02:25:24;95159.00;;;24.06;51.56
50342;BME280;76053;42.682;23.286;2024-01-27T02:28:25;95153.16;;;24.04;51.70
50342;BME280;76053;42.682;23.286;2024-01-27T02:31:25;95147.31;;;24.02;51.54
50342;BME280;76053;42.682;23.286;2024-01-27T02:34:26;95126.28;;;23.99;51.67
50342;BME280;76053;42.682;23.286;2024-01-27T02:37:26;95143.50;;;23.96;51.76
50342;BME280;76053;42.682;23.286;2024-01-27T02:40:27;95160.28;;;23.94;51.70
50342;BME280;76053;42.682;23.286;2024-01-27T02:43:27;95148.19;;;23.92;51.51
50342;BME280;76053;42.682;23.286;2024-01-27T02:46:28;95142.72;;;23.92;52.08
50342;BME280;76053;42.682;23.286;2024-01-27T02:49:28;95150.97;;;23.88;52.04
50342;BME280;76053;42.682;23.286;2024-01-27T02:52:29;95136.56;;;23.84;51.93
50342;BME280;76053;42.682;23.286;2024-01-27T02:55:29;95146.31;;;23.82;51.90
50342;BME280;76053;42.682;23.286;2024-01-27T02:58:30;95148.31;;;23.78;51.65
50342;BME280;76053;42.682;23.286;2024-01-27T03:01:30;95147.53;;;23.77;52.65
50342;BME280;76053;42.682;23.286;2024-01-27T03:04:31;95151.00;;;23.81;54.02
50342;BME280;76053;42.682;23.286;2024-01-27T03:07:31;95148.66;;;23.83;54.72
50342;BME280;76053;42.682;23.286;2024-01-27T03:10:32;95163.09;;;23.84;55.14
50342;BME280;76053;42.682;23.286;2024-01-27T03:13:32;95156.06;;;23.83;55.20
50342;BME280;76053;42.682;23.286;2024-01-27T03:16:32;95157.25;;;23.82;55.62
50342;BME280;76053;42.682;23.286;2024-01-27T03:19:33;95158.03;;;23.82;55.63
50342;BME280;76053;42.682;23.286;2024-01-27T03:22:33;95154.94;;;23.80;55.43
50342;BME280;76053;42.682;23.286;2024-01-27T03:25:34;95158.06;;;23.79;55.56
50342;BME280;76053;42.682;23.286;2024-01-27T03:28:34;95167.06;;;23.76;55.89
50342;BME280;76053;42.682;23.286;2024-01-27T03:31:35;95162.03;;;23.71;55.51
50342;BME280;76053;42.682;23.286;2024-01-27T03:34:35;95153.50;;;23.65;55.79
50342;BME280;76053;42.682;23.286;2024-01-27T03:37:36;95158.22;;;23.61;55.62
50342;BME280;76053;42.682;23.286;2024-01-27T03:40:36;95148.47;;;23.56;55.42
50342;BME280;76053;42.682;23.286;2024-01-27T03:43:37;95150.44;;;23.52;55.54
50342;BME280;76053;42.682;23.286;2024-01-27T03:46:37;95146.59;;;23.50;55.14
50342;BME280;76053;42.682;23.286;2024-01-27T03:49:39;95146.97;;;23.48;55.23
50342;BME280;76053;42.682;23.286;2024-01-27T03:52:41;95131.41;;;23.45;55.13
50342;BME280;76053;42.682;23.286;2024-01-27T03:55:41;95132.94;;;23.43;55.12
50342;BME280;76053;42.682;23.286;2024-01-27T03:58:42;95134.53;;;23.40;54.85
50342;BME280;76053;42.682;23.286;2024-01-27T04:01:42;95138.06;;;23.37;55.19
50342;BME280;76053;42.682;23.286;2024-01-27T04:04:43;95143.94;;;23.36;55.01
50342;BME280;76053;42.682;23.286;2024-01-27T04:07:43;95144.72;;;23.33;54.98
50342;BME280;76053;42.682;23.286;2024-01-27T04:10:44;95143.94;;;23.32;54.98
50342;BME280;76053;42.682;23.286;2024-01-27T04:13:44;95145.91;;;23.28;55.16
50342;BME280;76053;42.682;23.286;2024-01-27T04:16:45;95135.38;;;23.27;55.00
50342;BME280;76053;42.682;23.286;2024-01-27T04:19:45;95130.34;;;23.25;55.17
50342;BME280;76053;42.682;23.286;2024-01-27T04:22:46;95137.38;;;23.23;55.11
50342;BME280;76053;42.682;23.286;2024-01-27T04:25:46;95147.91;;;23.21;54.95
50342;BME280;76053;42.682;23.286;2024-01-27T04:28:47;95140.13;;;23.19;54.94
50342;BME280;76053;42.682;23.286;2024-01-27T04:31:47;95140.50;;;23.17;55.11
50342;BME280;76053;42.682;23.286;2024-01-27T04:34:48;95150.28;;;23.15;54.84
50342;BME280;76053;42.682;23.286;2024-01-27T04:37:48;95148.34;;;23.12;55.19
50342;BME280;76053;42.682;23.286;2024-01-27T04:40:50;95147.56;;;23.11;55.06
50342;BME280;76053;42.682;23.286;2024-01-27T04:43:50;95145.63;;;23.08;54.60
50342;BME280;76053;42.682;23.286;2024-01-27T04:46:53;95142.91;;;23.08;54.95
50342;BME280;76053;42.682;23.286;2024-01-27T04:49:53;95143.72;;;23.05;54.80
50342;BME280;76053;42.682;23.286;2024-01-27T04:52:54;95154.22;;;23.03;54.61
50342;BME280;76053;42.682;23.286;2024-01-27T04:55:54;95143.31;;;23.03;54.99
50342;BME280;76053;42.682;23.286;2024-01-27T04:58:55;95142.94;;;23.01;55.00
50342;BME280;76053;42.682;23.286;2024-01-27T05:01:56;95146.84;;;23.00;54.64
50342;BME280;76053;42.682;23.286;2024-01-27T05:04:56;95155.81;;;22.97;55.02
50342;BME280;76053;42.682;23.286;2024-01-27T05:07:57;95155.81;;;22.97;55.09
50342;BME280;76053;42.682;23.286;2024-01-27T05:10:57;95163.22;;;22.97;54.98
50342;BME280;76053;42.682;23.286;2024-01-27T05:14:00;95167.53;;;22.94;54.90
50342;BME280;76053;42.682;23.286;2024-01-27T05:17:01;95167.13;;;22.92;54.79
50342;BME280;76053;42.682;23.286;2024-01-27T05:20:02;95162.88;;;22.91;55.07
50342;BME280;76053;42.682;23.286;2024-01-27T05:23:04;95167.53;;;22.91;54.76
50342;BME280;76053;42.682;23.286;2024-01-27T05:26:08;95163.66;;;22.88;55.08
50342;BME280;76053;42.682;23.286;2024-01-27T05:29:10;95173.75;;;22.88;54.90
50342;BME280;76053;42.682;23.286;2024-01-27T05:32:11;95157.41;;;22.88;55.05
50342;BME280;76053;42.682;23.286;2024-01-27T05:35:12;95159.78;;;22.86;54.99
50342;BME280;76053;42.682;23.286;2024-01-27T05:38:12;95160.94;;;22.85;55.14
50342;BME280;76053;42.682;23.286;2024-01-27T05:41:14;95163.66;;;22.85;54.96
50342;BME280;76053;42.682;23.286;2024-01-27T05:44:14;95168.72;;;22.83;54.80
50342;BME280;76053;42.682;23.286;2024-01-27T05:47:15;95170.31;;;22.80;55.17
50342;BME280;76053;42.682;23.286;2024-01-27T05:50:15;95177.31;;;22.81;54.85
50342;BME280;76053;42.682;23.286;2024-01-27T05:53:16;95176.16;;;22.79;55.06
50342;BME280;76053;42.682;23.286;2024-01-27T05:56:16;95181.97;;;22.77;55.19
50342;BME280;76053;42.682;23.286;2024-01-27T05:59:21;95187.44;;;22.77;55.05
50342;BME280;76053;42.682;23.286;2024-01-27T06:02:21;95180.44;;;22.76;54.81
50342;BME280;76053;42.682;23.286;2024-01-27T06:05:22;95190.97;;;22.74;54.93
50342;BME280;76053;42.682;23.286;2024-01-27T06:08:22;95195.63;;;22.73;54.87
50342;BME280;76053;42.682;23.286;2024-01-27T06:11:26;95196.78;;;22.72;55.01
50342;BME280;76053;42.682;23.286;2024-01-27T06:14:26;95197.22;;;22.71;54.81
50342;BME280;76053;42.682;23.286;2024-01-27T06:17:27;95204.59;;;22.70;55.08
50342;BME280;76053;42.682;23.286;2024-01-27T06:20:27;95211.19;;;22.69;54.97
50342;BME280;76053;42.682;23.286;2024-01-27T06:23:28;95206.91;;;22.68;55.16
50342;BME280;76053;42.682;23.286;2024-01-27T06:26:28;95199.13;;;22.67;54.89
50342;BME280;76053;42.682;23.286;2024-01-27T06:29:29;95215.88;;;22.65;55.17
50342;BME280;76053;42.682;23.286;2024-01-27T06:32:29;95229.09;;;22.67;54.79
50342;BME280;76053;42.682;23.286;2024-01-27T06:35:30;95239.25;;;22.66;54.97
50342;BME280;76053;42.682;23.286;2024-01-27T06:38:30;95252.47;;;22.64;55.20
50342;BME280;76053;42.682;23.286;2024-01-27T06:41:32;95241.94;;;22.63;54.78
50342;BME280;76053;42.682;23.286;2024-01-27T06:44:32;95246.63;;;22.62;55.15
50342;BME280;76053;42.682;23.286;2024-01-27T06:47:32;95249.34;;;22.62;54.79
50342;BME280;76053;42.682;23.286;2024-01-27T06:50:33;95264.16;;;22.61;54.86
50342;BME280;76053;42.682;23.286;2024-01-27T06:53:34;95264.16;;;22.61;55.18
50342;BME280;76053;42.682;23.286;2024-01-27T06:56:34;95257.16;;;22.60;54.82
50342;BME280;76053;42.682;23.286;2024-01-27T06:59:35;95261.44;;;22.61;55.36
50342;BME280;76053;42.682;23.286;2024-01-27T07:02:35;95250.91;;;22.63;55.09
50342;BME280;76053;42.682;23.286;2024-01-27T07:05:36;95259.06;;;22.63;54.93
50342;BME280;76053;42.682;23.286;2024-01-27T07:08:40;95248.56;;;22.62;54.58
50342;BME280;76053;42.682;23.286;2024-01-27T07:11:40;95237.66;;;22.62;54.62
50342;BME280;76053;42.682;23.286;2024-01-27T07:14:41;95264.91;;;22.62;54.73
50342;BME280;76053;42.682;23.286;2024-01-27T07:17:41;95254.41;;;22.64;55.13
50342;BME280;76053;42.682;23.286;2024-01-27T07:20:42;95252.09;;;22.66;55.14
50342;BME280;76053;42.682;23.286;2024-01-27T07:23:43;95266.47;;;22.70;54.90
50342;BME280;76053;42.682;23.286;2024-01-27T07:26:43;95277.78;;;22.72;55.14
50342;BME280;76053;42.682;23.286;2024-01-27T07:29:44;95272.31;;;22.72;55.21
50342;BME280;76053;42.682;23.286;2024-01-27T07:32:44;95297.25;;;22.74;55.29
50342;BME280;76053;42.682;23.286;2024-01-27T07:35:45;95302.31;;;22.76;55.06
50342;BME280;76053;42.682;23.286;2024-01-27T07:38:45;95322.94;;;22.77;55.49
50342;BME280;76053;42.682;23.286;2024-01-27T07:41:46;95344.72;;;22.77;55.44
50342;BME280;76053;42.682;23.286;2024-01-27T07:44:48;95337.75;;;22.76;55.15
50342;BME280;76053;42.682;23.286;2024-01-27T07:47:49;95341.63;;;22.74;54.93
50342;BME280;76053;42.682;23.286;2024-01-27T07:50:50;95338.13;;;22.74;55.14
50342;BME280;76053;42.682;23.286;2024-01-27T07:53:51;95351.75;;;22.74;54.99
50342;BME280;76053;42.682;23.286;2024-01-27T07:56:51;95337.34;;;22.73;55.27
50342;BME280;76053;42.682;23.286;2024-01-27T07:59:52;95342.78;;;22.73;55.12
50342;BME280;76053;42.682;23.286;2024-01-27T08:02:52;95350.97;;;22.73;54.90
50342;BME280;76053;42.682;23.286;2024-01-27T08:05:53;95364.59;;;22.73;55.02
50342;BME280;76053;42.682;23.286;2024-01-27T08:08:56;95350.19;;;22.73;54.91
50342;BME280;76053;42.682;23.286;2024-01-27T08:11:57;95360.72;;;22.74;54.94
50342;BME280;76053;42.682;23.286;2024-01-27T08:14:57;95377.44;;;22.73;54.49
50342;BME280;76053;42.682;23.286;2024-01-27T08:17:58;95358.00;;;22.71;54.71
50342;BME280;76053;42.682;23.286;2024-01-27T08:20:58;95356.81;;;22.72;54.49
50342;BME280;76053;42.682;23.286;2024-01-27T08:23:59;95361.47;;;22.71;54.52
50342;BME280;76053;42.682;23.286;2024-01-27T08:26:59;95356.81;;;22.72;54.62
50342;BME280;76053;42.682;23.286;2024-01-27T08:30:01;95346.69;;;22.72;54.49
50342;BME280;76053;42.682;23.286;2024-01-27T08:33:01;95333.06;;;22.72;54.70
50342;BME280;76053;42.682;23.286;2024-01-27T08:36:02;95329.56;;;22.72;54.31
50342;BME280;76053;42.682;23.286;2024-01-27T08:39:02;95369.28;;;22.73;54.26
50342;BME280;76053;42.682;23.286;2024-01-27T08:42:03;95360.31;;;22.72;54.17
50342;BME280;76053;42.682;23.286;2024-01-27T08:45:04;95358.75;;;22.71;54.02
50342;BME280;76053;42.682;23.286;2024-01-27T08:48:05;95367.72;;;22.72;54.22
50342;BME280;76053;42.682;23.286;2024-01-27T08:51:08;95377.44;;;22.73;54.37
50342;BME280;76053;42.682;23.286;2024-01-27T08:54:09;95358.38;;;22.73;54.02
50342;BME280;76053;42.682;23.286;2024-01-27T08:57:10;95350.97;;;22.73;54.20
50342;BME280;76053;42.682;23.286;2024-01-27T09:00:11;95353.69;;;22.73;54.03
50342;BME280;76053;42.682;23.286;2024-01-27T09:03:13;95366.16;;;22.74;54.03
50342;BME280;76053;42.682;23.286;2024-01-27T09:06:14;95356.81;;;22.76;53.97
50342;BME280;76053;42.682;23.286;2024-01-27T09:09:15;95365.78;;;22.76;53.65
50342;BME280;76053;42.682;23.286;2024-01-27T09:12:15;95349.81;;;22.74;54.16
50342;BME280;76053;42.682;23.286;2024-01-27T09:15:16;95358.34;;;22.77;53.70
50342;BME280;76053;42.682;23.286;2024-01-27T09:18:16;95346.69;;;22.76;53.85
50342;BME280;76053;42.682;23.286;2024-01-27T09:21:17;95343.19;;;22.76;53.81
50342;BME280;76053;42.682;23.286;2024-01-27T09:24:22;95357.59;;;22.76;53.38
50342;BME280;76053;42.682;23.286;2024-01-27T09:27:23;95342.41;;;22.75;53.55
50342;BME280;76053;42.682;23.286;2024-01-27T09:30:23;95322.94;;;22.77;53.66
50342;BME280;76053;42.682;23.286;2024-01-27T09:33:24;95329.56;;;22.76;53.38
50342;BME280;76053;42.682;23.286;2024-01-27T09:36:24;95332.28;;;22.76;53.81
50342;BME280;76053;42.682;23.286;2024-01-27T09:39:26;95329.94;;;22.74;53.53
50342;BME280;76053;42.682;23.286;2024-01-27T09:42:26;95331.91;;;22.73;53.62
50342;BME280;76053;42.682;23.286;2024-01-27T09:45:28;95314.75;;;22.73;53.41
50342;BME280;76053;42.682;23.286;2024-01-27T09:48:29;95340.06;;;22.73;53.62
50342;BME280;76053;42.682;23.286;2024-01-27T09:51:30;95364.59;;;22.70;53.55
50342;BME280;76053;42.682;23.286;2024-01-27T09:54:31;95345.50;;;22.70;53.64
50342;BME280;76053;42.682;23.286;2024-01-27T09:57:31;95367.69;;;22.68;53.56
50342;BME280;76053;42.682;23.286;2024-01-27T10:00:34;95366.53;;;22.69;53.28
50342;BME280;76053;42.682;23.286;2024-01-27T10:03:38;95373.13;;;22.68;53.59
50342;BME280;76053;42.682;23.286;2024-01-27T10:06:40;95362.63;;;22.67;53.53
50342;BME280;76053;42.682;23.286;2024-01-27T10:09:41;95371.19;;;22.65;53.21
50342;BME280;76053;42.682;23.286;2024-01-27T10:12:44;95362.25;;;22.65;53.19
50342;BME280;76053;42.682;23.286;2024-01-27T10:15:45;95386.38;;;22.63;53.09
50342;BME280;76053;42.682;23.286;2024-01-27T10:18:46;95391.81;;;22.63;53.10
50342;BME280;76053;42.682;23.286;2024-01-27T10:21:47;95401.94;;;22.62;52.92
50342;BME280;76053;42.682;23.286;2024-01-27T10:24:48;95393.00;;;22.58;53.11
50342;BME280;76053;42.682;23.286;2024-01-27T10:27:48;95391.44;;;22.57;53.50
50342;BME280;76053;42.682;23.286;2024-01-27T10:30:49;95411.69;;;22.56;53.39
50342;BME280;76053;42.682;23.286;2024-01-27T10:33:53;95396.50;;;22.55;53.39
50342;BME280;76053;42.682;23.286;2024-01-27T10:36:54;95407.00;;;22.57;53.58
50342;BME280;76053;42.682;23.286;2024-01-27T10:43:06;95391.81;;;22.59;53.23
50342;BME280;76053;42.682;23.286;2024-01-27T10:46:08;95389.88;;;22.60;53.38
50342;BME280;76053;42.682;23.286;2024-01-27T10:49:12;95401.97;;;22.66;53.73
50342;BME280;76053;42.682;23.286;2024-01-27T10:52:14;95406.28;;;22.70;53.25
50342;BME280;76053;42.682;23.286;2024-01-27T10:55:16;95388.72;;;22.71;53.12
50342;BME280;76053;42.682;23.286;2024-01-27T10:58:17;95396.94;;;22.75;52.97
50342;BME280;76053;42.682;23.286;2024-01-27T11:01:19;95398.88;;;22.78;53.18
50342;BME280;76053;42.682;23.286;2024-01-27T11:04:23;95413.28;;;22.79;53.27
50342;BME280;76053;42.682;23.286;2024-01-27T11:07:25;95410.53;;;22.82;53.11
50342;BME280;76053;42.682;23.286;2024-01-27T11:10:27;95424.94;;;22.83;53.28
50342;BME280;76053;42.682;23.286;2024-01-27T11:13:33;95408.97;;;22.88;53.45
50342;BME280;76053;42.682;23.286;2024-01-27T11:16:34;95428.84;;;22.89;53.08
50342;BME280;76053;42.682;23.286;2024-01-27T11:19:35;95402.38;;;22.89;53.55
50342;BME280;76053;42.682;23.286;2024-01-27T11:22:35;95401.56;;;22.92;53.40
50342;BME280;76053;42.682;23.286;2024-01-27T11:25:37;95421.84;;;22.95;53.38
50342;BME280;76053;42.682;23.286;2024-01-27T11:28:37;95405.09;;;23.00;53.10
50342;BME280;76053;42.682;23.286;2024-01-27T11:31:40;95408.97;;;23.02;53.38
50342;BME280;76053;42.682;23.286;2024-01-27T11:34:44;95423.78;;;23.05;53.28
50342;BME280;76053;42.682;23.286;2024-01-27T11:37:45;95413.66;;;23.09;53.24
50342;BME280;76053;42.682;23.286;2024-01-27T11:40:46;95413.25;;;23.10;53.29
50342;BME280;76053;42.682;23.286;2024-01-27T11:43:57;95422.63;;;23.09;53.19
50342;BME280;76053;42.682;23.286;2024-01-27T11:46:58;95404.69;;;23.15;53.04
50342;BME280;76053;42.682;23.286;2024-01-27T11:49:59;95445.97;;;23.17;52.78
50342;BME280;76053;42.682;23.286;2024-01-27T11:53:00;95401.94;;;23.19;52.90
50342;BME280;76053;42.682;23.286;2024-01-27T11:56:00;95435.06;;;23.21;52.59
50342;BME280;76053;42.682;23.286;2024-01-27T11:59:02;95430.38;;;23.22;52.36
50342;BME280;76053;42.682;23.286;2024-01-27T12:02:02;95436.59;;;23.22;52.43
50342;BME280;76053;42.682;23.286;2024-01-27T12:05:05;95437.38;;;23.23;52.17
50342;BME280;76053;42.682;23.286;2024-01-27T12:08:08;95458.81;;;23.06;52.21
50342;BME280;76053;42.682;23.286;2024-01-27T12:11:08;95458.44;;;23.15;52.47
50342;BME280;76053;42.682;23.286;2024-01-27T12:14:09;95457.25;;;23.23;52.74
50342;BME280;76053;42.682;23.286;2024-01-27T12:17:10;95450.63;;;23.28;52.33
50342;BME280;76053;42.682;23.286;2024-01-27T12:20:15;95474.00;;;23.32;52.37
50342;BME280;76053;42.682;23.286;2024-01-27T12:23:16;95444.75;;;23.36;52.36
50342;BME280;76053;42.682;23.286;2024-01-27T12:26:17;95454.53;;;23.41;52.19
50342;BME280;76053;42.682;23.286;2024-01-27T12:29:20;95443.25;;;23.46;52.27
50342;BME280;76053;42.682;23.286;2024-01-27T12:32:20;95458.03;;;23.48;51.73
50342;BME280;76053;42.682;23.286;2024-01-27T12:35:21;95462.69;;;23.51;51.86
50342;BME280;76053;42.682;23.286;2024-01-27T12:38:22;95454.13;;;23.53;51.78
50342;BME280;76053;42.682;23.286;2024-01-27T12:41:27;95449.84;;;23.59;51.66
50342;BME280;76053;42.682;23.286;2024-01-27T12:44:28;95446.31;;;23.58;51.70
50342;BME280;76053;42.682;23.286;2024-01-27T12:47:28;95454.91;;;23.61;51.62
50342;BME280;76053;42.682;23.286;2024-01-27T12:50:28;95460.72;;;23.63;51.56
50342;BME280;76053;42.682;23.286;2024-01-27T12:53:30;95447.06;;;23.66;51.60
50342;BME280;76053;42.682;23.286;2024-01-27T12:56:31;95467.75;;;23.67;51.51
50342;BME280;76053;42.682;23.286;2024-01-27T12:59:31;95460.72;;;23.70;51.39
50342;BME280;76053;42.682;23.286;2024-01-27T13:02:32;95460.72;;;23.70;51.44
50342;BME280;76053;42.682;23.286;2024-01-27T13:05:32;95447.47;;;23.68;51.25
50342;BME280;76053;42.682;23.286;2024-01-27T13:08:34;95446.31;;;23.66;51.49
50342;BME280;76053;42.682;23.286;2024-01-27T13:11:35;95436.16;;;23.66;51.12
50342;BME280;76053;42.682;23.286;2024-01-27T13:14:35;95440.84;;;23.66;51.25
50342;BME280;76053;42.682;23.286;2024-01-27T13:17:36;95461.16;;;23.61;51.38
50342;BME280;76053;42.682;23.286;2024-01-27T13:20:37;95457.63;;;23.61;51.21
50342;BME280;76053;42.682;23.286;2024-01-27T13:23:38;95463.88;;;23.57;51.03
50342;BME280;76053;42.682;23.286;2024-01-27T13:26:38;95479.09;;;23.55;51.18
50342;BME280;76053;42.682;23.286;2024-01-27T13:29:39;95494.69;;;23.54;51.35
50342;BME280;76053;42.682;23.286;2024-01-27T13:32:39;95474.78;;;23.57;51.24
50342;BME280;76053;42.682;23.286;2024-01-27T13:35:40;95495.06;;;23.60;51.38
50342;BME280;76053;42.682;23.286;2024-01-27T13:38:40;95483.72;;;23.62;51.43
50342;BME280;76053;42.682;23.286;2024-01-27T13:41:41;95513.34;;;23.67;51.08
50342;BME280;76053;42.682;23.286;2024-01-27T13:44:41;95501.28;;;23.68;51.21
50342;BME280;76053;42.682;23.286;2024-01-27T13:47:42;95505.16;;;23.67;51.32
50342;BME280;76053;42.682;23.286;2024-01-27T13:50:42;95505.59;;;23.65;51.08
50342;BME280;76053;42.682;23.286;2024-01-27T13:53:43;95515.31;;;23.66;51.24
50342;BME280;76053;42.682;23.286;2024-01-27T13:56:43;95514.94;;;23.64;51.31
50342;BME280;76053;42.682;23.286;2024-01-27T14:09:16;95528.97;;;23.59;51.53
50342;BME280;76053;42.682;23.286;2024-01-27T14:12:16;95520.41;;;23.57;51.47
50342;BME280;76053;42.682;23.286;2024-01-27T14:15:17;95515.34;;;23.55;51.41
50342;BME280;76053;42.682;23.286;2024-01-27T14:18:17;95507.16;;;23.52;51.59
50342;BME280;76053;42.682;23.286;2024-01-27T14:21:20;95490.78;;;23.48;51.80
50342;BME280;76053;42.682;23.286;2024-01-27T14:24:21;95489.63;;;23.46;51.90
50342;BME280;76053;42.682;23.286;2024-01-27T14:27:21;95504.03;;;23.46;51.69
50342;BME280;76053;42.682;23.286;2024-01-27T14:30:25;95505.22;;;23.45;51.77
50342;BME280;76053;42.682;23.286;2024-01-27T14:33:26;95498.56;;;23.46;51.75
50342;BME280;76053;42.682;23.286;2024-01-27T14:36:26;95484.53;;;23.48;51.55
50342;BME280;76053;42.682;23.286;2024-01-27T14:39:27;95542.22;;;23.39;47.83
50342;BME280;76053;42.682;23.286;2024-01-27T14:42:27;95514.91;;;22.97;47.60
50342;BME280;76053;42.682;23.286;2024-01-27T14:45:28;95527.00;;;23.03;48.32
50342;BME280;76053;42.682;23.286;2024-01-27T14:48:29;95515.31;;;23.09;48.17
50342;BME280;76053;42.682;23.286;2024-01-27T14:51:30;95511.84;;;23.16;48.67
50342;BME280;76053;42.682;23.286;2024-01-27T14:54:30;95507.16;;;23.20;48.70
50342;BME280;76053;42.682;23.286;2024-01-27T14:57:31;95512.59;;;23.24;49.25
50342;BME280;76053;42.682;23.286;2024-01-27T15:00:31;95512.59;;;23.27;49.11
50342;BME280;76053;42.682;23.286;2024-01-27T15:03:32;95518.06;;;23.31;49.32
50342;BME280;76053;42.682;23.286;2024-01-27T15:06:33;95512.97;;;23.33;49.37
50342;BME280;76053;42.682;23.286;2024-01-27T15:09:34;95524.66;;;23.37;49.74
50342;BME280;76053;42.682;23.286;2024-01-27T15:12:34;95518.44;;;23.36;49.56
50342;BME280;76053;42.682;23.286;2024-01-27T15:15:35;95526.63;;;23.36;49.67
50342;BME280;76053;42.682;23.286;2024-01-27T15:18:35;95520.41;;;23.36;49.77
50342;BME280;76053;42.682;23.286;2024-01-27T15:21:40;95526.25;;;23.34;50.15
50342;BME280;76053;42.682;23.286;2024-01-27T15:24:40;95540.66;;;23.35;49.96
50342;BME280;76053;42.682;23.286;2024-01-27T15:27:41;95538.72;;;23.35;50.26
50342;BME280;76053;42.682;23.286;2024-01-27T15:30:43;95549.22;;;23.33;50.29
50342;BME280;76053;42.682;23.286;2024-01-27T15:33:47;95553.91;;;23.33;50.36
50342;BME280;76053;42.682;23.286;2024-01-27T15:36:48;95560.16;;;23.30;50.33
50342;BME280;76053;42.682;23.286;2024-01-27T15:39:48;95564.81;;;23.29;50.50
50342;BME280;76053;42.682;23.286;2024-01-27T15:42:50;95567.94;;;23.28;50.76
50342;BME280;76053;42.682;23.286;2024-01-27T15:45:50;95580.78;;;23.27;50.77
50342;BME280;76053;42.682;23.286;2024-01-27T15:48:54;95566.38;;;23.27;50.89
50342;BME280;76053;42.682;23.286;2024-01-27T15:51:54;95585.47;;;23.27;51.05
50342;BME280;76053;42.682;23.286;2024-01-27T15:54:55;95588.19;;;23.27;51.00
50342;BME280;76053;42.682;23.286;2024-01-27T15:57:55;95596.38;;;23.27;51.07
50342;BME280;76053;42.682;23.286;2024-01-27T16:00:56;95597.16;;;23.27;51.26
50342;BME280;76053;42.682;23.286;2024-01-27T16:03:56;95601.44;;;23.28;51.18
50342;BME280;76053;42.682;23.286;2024-01-27T16:06:57;95609.63;;;23.28;51.16
50342;BME280;76053;42.682;23.286;2024-01-27T16:09:57;95593.25;;;23.28;51.44
50342;BME280;76053;42.682;23.286;2024-01-27T16:13:01;95601.84;;;23.30;51.43
50342;BME280;76053;42.682;23.286;2024-01-27T16:16:02;95608.47;;;23.33;51.78